Time;durP1;ratioP1;P1;durP2;ratioP2;P2;SDS_P1;SDS_P2;PMS_P1;PMS_P2;Temp;Humidity;BMP_temperature;BMP_pressure;BME280_temperature;BME280_humidity;BME280_pressure;Samples;Min_cycle;Max_cycle;Signal;HPM_P1;HPM_P2
2021/07/22 00:01:01;;;;;;;0.10;0.10;;;;;;;;;;5053922;28;20036;-81
2021/07/22 00:03:27;;;;;;;0.13;0.13;;;;;;;;;;5053987;28;20041;-80
2021/07/22 00:05:53;;;;;;;0.20;0.20;;;;;;;;;;5053657;28;20104;-81
2021/07/22 00:08:19;;;;;;;0.10;0.10;;;;;;;;;;5053618;28;20124;-80
2021/07/22 00:10:45;;;;;;;0.10;0.10;;;;;;;;;;5054011;28;20040;-82
2021/07/22 00:13:11;;;;;;;0.10;0.10;;;;;;;;;;5054006;28;20025;-81
2021/07/22 00:15:37;;;;;;;0.10;0.10;;;;;;;;;;5053902;28;20507;-82
2021/07/22 00:18:04;;;;;;;0.10;0.10;;;;;;;;;;5053178;28;20045;-82
2021/07/22 00:20:30;;;;;;;0.15;0.15;;;;;;;;;;5052457;28;20021;-82
2021/07/22 00:22:56;;;;;;;0.15;0.15;;;;;;;;;;5053787;28;20396;-82
2021/07/22 00:25:22;;;;;;;0.55;0.28;;;;;;;;;;5052021;28;20056;-81
2021/07/22 00:27:48;;;;;;;0.10;0.10;;;;;;;;;;5053108;28;20445;-81
2021/07/22 00:30:14;;;;;;;0.10;0.10;;;;;;;;;;5053718;28;20060;-83
2021/07/22 00:32:40;;;;;;;0.10;0.10;;;;;;;;;;5053508;28;20510;-82
2021/07/22 00:35:06;;;;;;;0.10;0.10;;;;;;;;;;5053861;28;20096;-82
2021/07/22 00:37:32;;;;;;;0.20;0.20;;;;;;;;;;5052990;28;20532;-82
2021/07/22 00:39:58;;;;;;;0.10;0.10;;;;;;;;;;5053265;28;20029;-81
2021/07/22 00:42:25;;;;;;;0.15;0.15;;;;;;;;;;5052305;28;20028;-83
2021/07/22 00:44:51;;;;;;;0.10;0.10;;;;;;;;;;5053658;28;20106;-82
2021/07/22 00:47:16;;;;;;;0.10;0.10;;;;;;;;;;5052796;28;20455;-82
2021/07/22 00:49:46;;;;;;;0.20;0.20;;;;;;;;;;5051723;28;20020;-83
2021/07/22 00:52:12;;;;;;;0.10;0.10;;;;;;;;;;5053392;28;20108;-82
2021/07/22 00:54:38;;;;;;;0.20;0.20;;;;;;;;;;5053121;28;20522;-82
2021/07/22 00:57:04;;;;;;;0.20;0.20;;;;;;;;;;5052903;28;20087;-82
2021/07/22 00:59:30;;;;;;;0.10;0.10;;;;;;;;;;5052973;28;20041;-81
2021/07/22 01:01:56;;;;;;;0.10;0.10;;;;;;;;;;5053138;28;20043;-82
2021/07/22 01:04:22;;;;;;;0.10;0.10;;;;;;;;;;5052583;28;20052;-83
2021/07/22 01:06:48;;;;;;;0.10;0.10;;;;;;;;;;5052351;28;20028;-82
2021/07/22 01:09:14;;;;;;;0.10;0.10;;;;;;;;;;5052250;28;20399;-81
2021/07/22 01:11:40;;;;;;;0.20;0.20;;;;;;;;;;5052742;28;20534;-81
2021/07/22 01:14:06;;;;;;;0.10;0.10;;;;;;;;;;5052822;28;20025;-82
2021/07/22 01:16:32;;;;;;;0.10;0.10;;;;;;;;;;5052834;28;20437;-82
2021/07/22 01:18:58;;;;;;;0.10;0.10;;;;;;;;;;5052197;28;20103;-82
2021/07/22 01:21:24;;;;;;;0.20;0.20;;;;;;;;;;5052789;28;20049;-82
2021/07/22 01:23:51;;;;;;;0.20;0.20;;;;;;;;;;5051108;28;20036;-82
2021/07/22 01:26:17;;;;;;;0.10;0.10;;;;;;;;;;5052694;28;20028;-82
2021/07/22 01:28:43;;;;;;;0.13;0.13;;;;;;;;;;5052117;28;20041;-82
2021/07/22 01:31:09;;;;;;;0.10;0.10;;;;;;;;;;5052742;28;20111;-82
2021/07/22 01:33:35;;;;;;;0.20;0.20;;;;;;;;;;5051072;28;20021;-82
2021/07/22 01:36:01;;;;;;;0.15;0.15;;;;;;;;;;5052108;28;20112;-82
2021/07/22 01:38:27;;;;;;;0.10;0.10;;;;;;;;;;5052095;28;20116;-82
2021/07/22 01:40:53;;;;;;;0.20;0.20;;;;;;;;;;5050786;28;20364;-82
2021/07/22 01:43:19;;;;;;;0.30;0.30;;;;;;;;;;5052233;28;20029;-80
2021/07/22 01:45:45;;;;;;;0.20;0.20;;;;;;;;;;5052191;28;20433;-82
2021/07/22 01:48:11;;;;;;;0.20;0.20;;;;;;;;;;5051921;28;20029;-81
2021/07/22 01:50:37;;;;;;;0.20;0.20;;;;;;;;;;5050741;28;20183;-82
2021/07/22 01:53:04;;;;;;;0.17;0.17;;;;;;;;;;5052038;28;20029;-82
2021/07/22 01:55:30;;;;;;;0.20;0.20;;;;;;;;;;5052432;28;20021;-81
2021/07/22 01:57:58;;;;;;;0.10;0.10;;;;;;;;;;5052071;28;20487;-82
2021/07/22 02:00:24;;;;;;;0.25;0.25;;;;;;;;;;5051497;28;20052;-81
2021/07/22 02:02:50;;;;;;;0.20;0.20;;;;;;;;;;5051833;28;20056;-82
2021/07/22 02:05:16;;;;;;;0.10;0.10;;;;;;;;;;5051701;28;20053;-81
2021/07/22 02:07:42;;;;;;;0.10;0.10;;;;;;;;;;5051599;28;20032;-82
2021/07/22 02:10:08;;;;;;;0.10;0.10;;;;;;;;;;5051111;28;20440;-82
2021/07/22 02:12:34;;;;;;;0.10;0.10;;;;;;;;;;5051902;28;20106;-82
2021/07/22 02:15:00;;;;;;;0.10;0.10;;;;;;;;;;5051584;28;20378;-81
2021/07/22 02:17:26;;;;;;;0.10;0.10;;;;;;;;;;5051622;28;20025;-82
2021/07/22 02:19:52;;;;;;;0.10;0.10;;;;;;;;;;5050531;28;20033;-82
2021/07/22 02:22:18;;;;;;;0.10;0.10;;;;;;;;;;5050992;28;20058;-81
2021/07/22 02:24:44;;;;;;;0.20;0.20;;;;;;;;;;5051479;28;20459;-81
2021/07/22 02:27:10;;;;;;;0.10;0.10;;;;;;;;;;5052480;28;20021;-81
2021/07/22 02:29:36;;;;;;;0.10;0.10;;;;;;;;;;5053594;28;20044;-81
2021/07/22 02:32:04;;;;;;;0.10;0.10;;;;;;;;;;5051086;28;20049;-82
2021/07/22 02:34:30;;;;;;;0.17;0.17;;;;;;;;;;5051193;28;20331;-81
2021/07/22 02:36:56;;;;;;;0.10;0.10;;;;;;;;;;5051701;28;20028;-81
2021/07/22 02:39:22;;;;;;;0.10;0.10;;;;;;;;;;5050821;28;20446;-81
2021/07/22 02:41:48;;;;;;;0.10;0.10;;;;;;;;;;5050820;28;20096;-81
2021/07/22 02:44:14;;;;;;;0.17;0.17;;;;;;;;;;5051382;28;20032;-81
2021/07/22 02:46:40;;;;;;;0.10;0.10;;;;;;;;;;5051015;28;20021;-80
2021/07/22 02:49:06;;;;;;;0.17;0.17;;;;;;;;;;5050848;28;20068;-82
2021/07/22 02:51:32;;;;;;;0.20;0.20;;;;;;;;;;5049275;28;20045;-81
2021/07/22 02:53:58;;;;;;;0.10;0.10;;;;;;;;;;5049510;28;20029;-81
2021/07/22 02:56:25;;;;;;;0.10;0.10;;;;;;;;;;5049552;28;20033;-82
2021/07/22 02:58:51;;;;;;;0.20;0.20;;;;;;;;;;5050815;28;20100;-83
2021/07/22 03:01:17;;;;;;;0.20;0.20;;;;;;;;;;5050222;28;20116;-82
2021/07/22 03:03:43;;;;;;;0.10;0.10;;;;;;;;;;5050518;28;20060;-81
2021/07/22 03:06:14;;;;;;;0.20;0.20;;;;;;;;;;5051033;28;20027;-82
2021/07/22 03:08:41;;;;;;;0.10;0.10;;;;;;;;;;5050479;28;20106;-81
2021/07/22 03:11:07;;;;;;;;;;;;;;;;;;5051053;28;20044;-82
2021/07/22 03:13:34;;;;;;;0.10;0.10;;;;;;;;;;5048873;28;19905;-82
2021/07/22 03:16:00;;;;;;;0.30;0.30;;;;;;;;;;5050225;28;20021;-81
2021/07/22 03:18:26;;;;;;;0.20;0.20;;;;;;;;;;5050459;28;20031;-82
2021/07/22 03:20:52;;;;;;;0.20;0.20;;;;;;;;;;5050278;28;20078;-82
2021/07/22 03:23:18;;;;;;;0.10;0.10;;;;;;;;;;5048551;28;20709;-81
2021/07/22 03:25:45;;;;;;;0.30;0.30;;;;;;;;;;5050484;28;20027;-82
2021/07/22 03:28:11;;;;;;;0.10;0.10;;;;;;;;;;5050414;28;20027;-82
2021/07/22 03:30:37;;;;;;;0.10;0.10;;;;;;;;;;5049858;28;20033;-82
2021/07/22 03:33:03;;;;;;;0.10;0.10;;;;;;;;;;5050217;28;20029;-81
2021/07/22 03:35:29;;;;;;;0.20;0.20;;;;;;;;;;5049835;28;20091;-81
2021/07/22 03:37:59;;;;;;;0.20;0.20;;;;;;;;;;5050188;28;20761;-82
2021/07/22 03:40:25;;;;;;;0.20;0.20;;;;;;;;;;5049896;28;20388;-82
2021/07/22 03:42:51;;;;;;;0.30;0.30;;;;;;;;;;5050386;28;20334;-81
2021/07/22 03:45:17;;;;;;;0.20;0.20;;;;;;;;;;5049844;28;20028;-82
2021/07/22 03:47:43;;;;;;;0.10;0.10;;;;;;;;;;5049825;28;20021;-81
2021/07/22 03:50:09;;;;;;;0.20;0.20;;;;;;;;;;5050003;28;20483;-81
2021/07/22 03:52:35;;;;;;;0.13;0.13;;;;;;;;;;5050114;28;20017;-82
2021/07/22 03:55:01;;;;;;;0.10;0.10;;;;;;;;;;5050032;28;20602;-80
2021/07/22 03:57:27;;;;;;;0.25;0.25;;;;;;;;;;5049828;28;20278;-81
2021/07/22 03:59:53;;;;;;;0.10;0.10;;;;;;;;;;5049996;28;20527;-81
2021/07/22 04:02:19;;;;;;;0.25;0.25;;;;;;;;;;5049471;28;20282;-81
2021/07/22 04:04:45;;;;;;;0.20;0.20;;;;;;;;;;5049849;28;20130;-82
2021/07/22 04:07:11;;;;;;;0.20;0.20;;;;;;;;;;5049999;28;20471;-81
2021/07/22 04:09:37;;;;;;;0.10;0.10;;;;;;;;;;5049738;28;20025;-82
2021/07/22 04:12:03;;;;;;;0.20;0.20;;;;;;;;;;5049475;28;20100;-81
2021/07/22 04:14:29;;;;;;;0.20;0.20;;;;;;;;;;5049855;28;20033;-81
2021/07/22 04:16:55;;;;;;;0.10;0.10;;;;;;;;;;5050202;28;20048;-82
2021/07/22 04:19:20;;;;;;;0.15;0.15;;;;;;;;;;5049810;28;20021;-81
2021/07/22 04:21:46;;;;;;;0.20;0.20;;;;;;;;;;5049451;28;20041;-81
2021/07/22 04:24:12;;;;;;;0.10;0.10;;;;;;;;;;5049797;28;20032;-82
2021/07/22 04:26:38;;;;;;;0.10;0.10;;;;;;;;;;5049754;28;20517;-80
2021/07/22 04:29:04;;;;;;;0.20;0.20;;;;;;;;;;5049804;28;20022;-81
2021/07/22 04:31:30;;;;;;;0.20;0.20;;;;;;;;;;5049474;28;20403;-81
2021/07/22 04:33:56;;;;;;;0.10;0.10;;;;;;;;;;5049660;28;20131;-81
2021/07/22 04:36:22;;;;;;;0.20;0.20;;;;;;;;;;5049062;28;20039;-81
2021/07/22 04:38:49;;;;;;;0.20;0.20;;;;;;;;;;5049597;28;20029;-82
2021/07/22 04:41:15;;;;;;;0.32;0.32;;;;;;;;;;5049419;28;20063;-82
2021/07/22 04:43:41;;;;;;;0.20;0.20;;;;;;;;;;5053095;28;20143;-81
2021/07/22 04:46:07;;;;;;;0.10;0.10;;;;;;;;;;5053259;28;20104;-82
2021/07/22 04:48:33;;;;;;;0.20;0.20;;;;;;;;;;5051663;28;20132;-82
2021/07/22 04:51:05;;;;;;;0.40;0.40;;;;;;;;;;5051631;28;20095;-80
2021/07/22 04:53:33;;;;;;;0.10;0.10;;;;;;;;;;5053200;28;20761;-81
2021/07/22 04:55:59;;;;;;;0.20;0.20;;;;;;;;;;5053162;28;20091;-80
2021/07/22 04:58:26;;;;;;;0.10;0.10;;;;;;;;;;5053055;28;20021;-82
2021/07/22 05:00:53;;;;;;;0.10;0.10;;;;;;;;;;5052899;28;20099;-81
2021/07/22 05:03:20;;;;;;;0.20;0.20;;;;;;;;;;5051347;28;20040;-80
2021/07/22 05:05:46;;;;;;;0.40;0.40;;;;;;;;;;5053096;28;20029;-81
2021/07/22 05:08:12;;;;;;;0.30;0.30;;;;;;;;;;5052909;28;20436;-82
2021/07/22 05:10:38;;;;;;;0.17;0.17;;;;;;;;;;5052888;28;20025;-81
2021/07/22 05:13:04;;;;;;;0.10;0.10;;;;;;;;;;5052511;28;20112;-82
2021/07/22 05:15:30;;;;;;;0.20;0.20;;;;;;;;;;5052640;28;20459;-81
2021/07/22 05:17:56;;;;;;;0.20;0.20;;;;;;;;;;5052908;28;20021;-81
2021/07/22 05:20:22;;;;;;;0.20;0.20;;;;;;;;;;5052573;28;20025;-80
2021/07/22 05:22:48;;;;;;;0.20;0.20;;;;;;;;;;5052587;28;20122;-82
2021/07/22 05:25:14;;;;;;;0.20;0.20;;;;;;;;;;5052667;28;20137;-82
2021/07/22 05:27:40;;;;;;;0.20;0.20;;;;;;;;;;5050855;28;20021;-81
2021/07/22 05:30:06;;;;;;;0.20;0.20;;;;;;;;;;5051193;28;20190;-82
2021/07/22 05:32:33;;;;;;;0.20;0.20;;;;;;;;;;5052209;28;20119;-82
2021/07/22 05:34:59;;;;;;;0.20;0.20;;;;;;;;;;5052785;28;20036;-81
2021/07/22 05:37:26;;;;;;;0.20;0.20;;;;;;;;;;5052502;28;20414;-82
2021/07/22 05:39:52;;;;;;;0.30;0.30;;;;;;;;;;5052487;28;20033;-82
2021/07/22 05:42:18;;;;;;;0.20;0.20;;;;;;;;;;5051721;28;20033;-82
2021/07/22 05:44:44;;;;;;;0.10;0.10;;;;;;;;;;5052222;28;20029;-82
2021/07/22 05:47:10;;;;;;;0.20;0.20;;;;;;;;;;5052232;28;20022;-81
2021/07/22 05:49:36;;;;;;;0.20;0.20;;;;;;;;;;5051810;28;20044;-81
2021/07/22 05:52:02;;;;;;;0.30;0.25;;;;;;;;;;5050713;28;20045;-81
2021/07/22 05:54:28;;;;;;;0.10;0.10;;;;;;;;;;5051984;28;20035;-81
2021/07/22 05:56:54;;;;;;;0.25;0.25;;;;;;;;;;5052044;28;20029;-81
2021/07/22 05:59:20;;;;;;;0.30;0.30;;;;;;;;;;5050166;28;20140;-80
2021/07/22 06:01:46;;;;;;;0.30;0.30;;;;;;;;;;5051965;28;20025;-81
2021/07/22 06:04:12;;;;;;;0.10;0.10;;;;;;;;;;5051773;28;20045;-80
2021/07/22 06:06:42;;;;;;;0.20;0.20;;;;;;;;;;5050612;28;20025;-81
2021/07/22 06:09:08;;;;;;;0.40;0.40;;;;;;;;;;5052030;28;20029;-82
2021/07/22 06:11:34;;;;;;;0.30;0.30;;;;;;;;;;5051297;28;20071;-81
2021/07/22 06:14:00;;;;;;;0.25;0.25;;;;;;;;;;5051346;28;20048;-80
2021/07/22 06:16:27;;;;;;;0.20;0.20;;;;;;;;;;5051619;28;20127;-82
2021/07/22 06:18:53;;;;;;;0.25;0.25;;;;;;;;;;5051615;28;20021;-81
2021/07/22 06:21:19;;;;;;;0.10;0.10;;;;;;;;;;5051766;28;20032;-80
2021/07/22 06:23:45;;;;;;;0.40;0.35;;;;;;;;;;5051117;28;20128;-82
2021/07/22 06:26:11;;;;;;;0.22;0.22;;;;;;;;;;5051126;28;20067;-82
2021/07/22 06:28:37;;;;;;;0.30;0.30;;;;;;;;;;5051711;28;20406;-81
2021/07/22 06:31:03;;;;;;;0.35;0.35;;;;;;;;;;5051272;28;20021;-80
2021/07/22 06:33:30;;;;;;;0.20;0.20;;;;;;;;;;5051075;28;20487;-84
2021/07/22 06:35:55;;;;;;;0.23;0.23;;;;;;;;;;5051366;28;20032;-82
2021/07/22 06:38:21;;;;;;;0.13;0.13;;;;;;;;;;5050999;28;20025;-83
2021/07/22 06:40:47;;;;;;;0.20;0.20;;;;;;;;;;5051366;28;20044;-84
2021/07/22 06:43:14;;;;;;;0.45;0.45;;;;;;;;;;5050955;28;20037;-83
2021/07/22 06:45:40;;;;;;;0.40;0.40;;;;;;;;;;5050726;28;20112;-83
2021/07/22 06:48:07;;;;;;;0.30;0.30;;;;;;;;;;5051244;28;20549;-83
2021/07/22 06:50:33;;;;;;;0.22;0.22;;;;;;;;;;5051173;28;20025;-83
2021/07/22 06:53:02;;;;;;;0.30;0.30;;;;;;;;;;5050255;28;20045;-82
2021/07/22 06:55:28;;;;;;;0.20;0.20;;;;;;;;;;5051009;28;20024;-83
2021/07/22 06:57:54;;;;;;;0.15;0.15;;;;;;;;;;5050636;28;20036;-84
2021/07/22 07:00:20;;;;;;;0.20;0.20;;;;;;;;;;5050758;28;20028;-84
2021/07/22 07:02:46;;;;;;;0.20;0.20;;;;;;;;;;5050696;28;20037;-83
2021/07/22 07:05:12;;;;;;;0.10;0.10;;;;;;;;;;5048846;28;20047;-83
2021/07/22 07:07:38;;;;;;;0.10;0.10;;;;;;;;;;5050230;28;20041;-83
2021/07/22 07:10:05;;;;;;;0.20;0.20;;;;;;;;;;5050614;28;20025;-83
2021/07/22 07:12:31;;;;;;;0.22;0.22;;;;;;;;;;5050717;28;20541;-83
2021/07/22 07:14:57;;;;;;;0.30;0.30;;;;;;;;;;5050587;28;20041;-84
2021/07/22 07:17:22;;;;;;;0.10;0.10;;;;;;;;;;5050415;28;20127;-84
2021/07/22 07:19:50;;;;;;;0.20;0.20;;;;;;;;;;5050218;28;20059;-85
2021/07/22 07:22:17;;;;;;;0.20;0.20;;;;;;;;;;5050433;28;20060;-84
2021/07/22 07:24:43;;;;;;;0.10;0.10;;;;;;;;;;5050206;28;20118;-85
2021/07/22 07:27:08;;;;;;;0.20;0.20;;;;;;;;;;5050524;28;20025;-84
2021/07/22 07:29:35;;;;;;;0.20;0.20;;;;;;;;;;5050541;28;20024;-84
2021/07/22 07:32:01;;;;;;;0.30;0.30;;;;;;;;;;5050046;28;20083;-84
2021/07/22 07:34:27;;;;;;;0.20;0.20;;;;;;;;;;5050192;28;20471;-85
2021/07/22 07:36:54;;;;;;;0.20;0.20;;;;;;;;;;5050413;28;20025;-85
2021/07/22 07:39:20;;;;;;;0.22;0.22;;;;;;;;;;5050410;28;20360;-84
2021/07/22 07:41:46;;;;;;;0.27;0.27;;;;;;;;;;5048842;28;20090;-81
2021/07/22 07:44:12;;;;;;;0.20;0.20;;;;;;;;;;5049926;28;20086;-83
2021/07/22 07:46:39;;;;;;;0.20;0.20;;;;;;;;;;5050548;28;20324;-85
2021/07/22 07:49:06;;;;;;;0.28;0.28;;;;;;;;;;5050678;28;20025;-84
2021/07/22 07:51:32;;;;;;;0.20;0.20;;;;;;;;;;5050026;28;20022;-84
2021/07/22 07:53:58;;;;;;;0.10;0.10;;;;;;;;;;5050255;28;20029;-82
2021/07/22 07:56:24;;;;;;;0.10;0.10;;;;;;;;;;5050377;28;20036;-82
2021/07/22 07:58:50;;;;;;;0.20;0.20;;;;;;;;;;5049887;28;20110;-83
2021/07/22 08:01:16;;;;;;;0.10;0.10;;;;;;;;;;5050233;28;20047;-83
2021/07/22 08:03:42;;;;;;;0.20;0.20;;;;;;;;;;5049440;28;20052;-83
2021/07/22 08:06:09;;;;;;;0.20;0.20;;;;;;;;;;5049960;28;20624;-83
2021/07/22 08:08:35;;;;;;;0.20;0.20;;;;;;;;;;5050081;28;20045;-83
2021/07/22 08:11:01;;;;;;;0.20;0.20;;;;;;;;;;5050029;28;20475;-84
2021/07/22 08:13:27;;;;;;;0.20;0.20;;;;;;;;;;5050092;28;20029;-83
2021/07/22 08:15:53;;;;;;;0.13;0.13;;;;;;;;;;5049354;28;20040;-85
2021/07/22 08:18:19;;;;;;;0.20;0.20;;;;;;;;;;5053157;28;20037;-82
2021/07/22 08:20:45;;;;;;;0.20;0.20;;;;;;;;;;5053969;28;20493;-84
2021/07/22 08:23:11;;;;;;;0.25;0.25;;;;;;;;;;5052412;28;20120;-81
2021/07/22 08:25:37;;;;;;;0.20;0.20;;;;;;;;;;5053240;28;20430;-82
2021/07/22 08:28:05;;;;;;;0.20;0.20;;;;;;;;;;5053780;28;20251;-81
2021/07/22 08:30:31;;;;;;;0.15;0.15;;;;;;;;;;5053656;28;20025;-82
2021/07/22 08:32:57;;;;;;;0.10;0.10;;;;;;;;;;5053630;28;20086;-82
2021/07/22 08:35:23;;;;;;;0.20;0.20;;;;;;;;;;5053111;28;20037;-82
2021/07/22 08:37:49;;;;;;;0.20;0.20;;;;;;;;;;5053238;28;20065;-81
2021/07/22 08:40:15;;;;;;;0.20;0.20;;;;;;;;;;5053535;28;20045;-82
2021/07/22 08:42:47;;;;;;;0.20;0.20;;;;;;;;;;5053360;28;20044;-82
2021/07/22 08:45:13;;;;;;;0.20;0.20;;;;;;;;;;5052889;28;20029;-81
2021/07/22 08:47:41;;;;;;;0.10;0.10;;;;;;;;;;5051766;28;20052;-81
2021/07/22 08:50:08;;;;;;;0.30;0.30;;;;;;;;;;5053444;28;20103;-81
2021/07/22 08:52:34;;;;;;;0.30;0.30;;;;;;;;;;5053387;28;20343;-82
2021/07/22 08:55:00;;;;;;;0.10;0.10;;;;;;;;;;5052989;28;20029;-81
2021/07/22 08:57:32;;;;;;;0.20;0.20;;;;;;;;;;5052948;28;20032;-83
2021/07/22 08:59:58;;;;;;;0.17;0.17;;;;;;;;;;5053126;28;20044;-82
2021/07/22 09:02:27;;;;;;;0.35;0.15;;;;;;;;;;5053104;28;20035;-82
2021/07/22 09:04:57;;;;;;;0.10;0.10;;;;;;;;;;5052599;28;20041;-82
2021/07/22 09:07:24;;;;;;;0.20;0.20;;;;;;;;;;5052817;28;20032;-82
2021/07/22 09:10:08;;;;;;;0.20;0.20;;;;;;;;;;5052915;28;20124;-81
2021/07/22 09:12:43;;;;;;;0.17;0.17;;;;;;;;;;5052911;28;20036;-82
2021/07/22 09:15:13;;;;;;;0.20;0.20;;;;;;;;;;5052180;28;20049;-82
2021/07/22 09:17:39;;;;;;;0.20;0.20;;;;;;;;;;5052604;28;20037;-81
2021/07/22 09:20:12;;;;;;;0.20;0.20;;;;;;;;;;5052660;28;20021;-81
2021/07/22 09:22:42;;;;;;;0.10;0.10;;;;;;;;;;5051410;28;20021;-81
2021/07/22 09:25:09;;;;;;;0.10;0.10;;;;;;;;;;5052699;28;20111;-81
2021/07/22 09:27:34;;;;;;;;;;;;;;;;;;5050966;28;20321;-82
2021/07/22 09:30:01;;;;;;;0.20;0.20;;;;;;;;;;5052678;28;20414;-82
2021/07/22 09:32:33;;;;;;;0.20;0.20;;;;;;;;;;5052787;28;20079;-82
2021/07/22 09:35:09;;;;;;;0.28;0.28;;;;;;;;;;5052479;28;20051;-81
2021/07/22 09:37:35;;;;;;;0.22;0.22;;;;;;;;;;5052390;28;20021;-82
2021/07/22 09:40:01;;;;;;;0.13;0.13;;;;;;;;;;5052108;28;20025;-82
2021/07/22 09:42:39;;;;;;;0.20;0.20;;;;;;;;;;5052486;28;20446;-82
2021/07/22 09:45:10;;;;;;;0.20;0.20;;;;;;;;;;5052116;28;20262;-83
2021/07/22 09:47:36;;;;;;;0.10;0.10;;;;;;;;;;5051987;28;20098;-82
2021/07/22 09:50:08;;;;;;;0.30;0.30;;;;;;;;;;5050820;28;20037;-82
2021/07/22 09:52:34;;;;;;;0.15;0.15;;;;;;;;;;5052261;28;20032;-83
2021/07/22 09:55:00;;;;;;;0.10;0.10;;;;;;;;;;5052226;28;20021;-81
2021/07/22 09:57:27;;;;;;;0.20;0.20;;;;;;;;;;5051877;28;20027;-83
2021/07/22 09:59:55;;;;;;;0.10;0.10;;;;;;;;;;5052043;28;20103;-83
2021/07/22 10:02:22;;;;;;;0.20;0.20;;;;;;;;;;5051942;28;20020;-83
2021/07/22 10:04:48;;;;;;;;;;;;;;;;;;5051931;28;20132;-82
2021/07/22 10:07:15;;;;;;;0.20;0.20;;;;;;;;;;5051798;28;20319;-82
2021/07/22 10:09:41;;;;;;;;;;;;;;;;;;5052383;28;20036;-81
2021/07/22 10:12:07;;;;;;;0.22;0.22;;;;;;;;;;5051943;28;19905;-83
2021/07/22 10:14:33;;;;;;;0.10;0.10;;;;;;;;;;5051845;28;20032;-84
2021/07/22 10:17:01;;;;;;;0.10;0.10;;;;;;;;;;5051716;28;20152;-82
2021/07/22 10:19:28;;;;;;;0.30;0.30;;;;;;;;;;5051573;28;20021;-82
2021/07/22 10:21:56;;;;;;;0.10;0.10;;;;;;;;;;5051786;28;20100;-83
2021/07/22 10:24:23;;;;;;;0.17;0.17;;;;;;;;;;5050446;28;20108;-83
2021/07/22 10:26:49;;;;;;;0.20;0.20;;;;;;;;;;5051202;28;20159;-82
2021/07/22 10:29:15;;;;;;;0.20;0.20;;;;;;;;;;5051140;28;20364;-83
2021/07/22 10:31:43;;;;;;;0.17;0.17;;;;;;;;;;5051175;28;20123;-82
2021/07/22 10:34:13;;;;;;;0.20;0.20;;;;;;;;;;5051439;28;20064;-83
2021/07/22 10:36:43;;;;;;;0.10;0.10;;;;;;;;;;5051054;28;20510;-82
2021/07/22 10:39:09;;;;;;;0.20;0.20;;;;;;;;;;5050678;28;20029;-82
2021/07/22 10:41:40;;;;;;;0.20;0.20;;;;;;;;;;5049790;28;20021;-82
2021/07/22 10:44:06;;;;;;;0.10;0.10;;;;;;;;;;5050765;28;20134;-83
2021/07/22 10:46:51;;;;;;;0.15;0.15;;;;;;;;;;5051019;28;20034;-83
2021/07/22 10:49:17;;;;;;;0.20;0.20;;;;;;;;;;5051087;28;20057;-83
2021/07/22 10:51:45;;;;;;;0.20;0.20;;;;;;;;;;5051002;28;20029;-82
2021/07/22 10:54:31;;;;;;;0.10;0.10;;;;;;;;;;5050992;28;20158;-84
2021/07/22 10:56:57;;;;;;;0.10;0.10;;;;;;;;;;5050407;28;20098;-83
2021/07/22 10:59:43;;;;;;;0.10;0.10;;;;;;;;;;5049408;28;20107;-84
2021/07/22 11:02:08;;;;;;;0.20;0.20;;;;;;;;;;5050860;28;20060;-84
2021/07/22 11:04:34;;;;;;;0.10;0.10;;;;;;;;;;5050600;28;20179;-83
2021/07/22 11:07:00;;;;;;;0.30;0.30;;;;;;;;;;5050536;28;20480;-82
2021/07/22 11:09:55;;;;;;;0.10;0.10;;;;;;;;;;5050707;28;20267;-83
2021/07/22 11:12:36;;;;;;;0.20;0.20;;;;;;;;;;5048848;28;20122;-83
2021/07/22 11:15:02;;;;;;;0.10;0.10;;;;;;;;;;5050797;28;20498;-82
2021/07/22 11:17:28;;;;;;;;;;;;;;;;;;5051364;28;20033;-83
2021/07/22 11:20:32;;;;;;;0.10;0.10;;;;;;;;;;5051789;28;19916;-84
2021/07/22 11:23:10;;;;;;;0.20;0.20;;;;;;;;;;5008334;28;20042;-81
2021/07/22 11:25:42;;;;;;;0.10;0.10;;;;;;;;;;5008754;28;20029;-82
2021/07/22 11:28:10;;;;;;;0.30;0.30;;;;;;;;;;5033208;28;20505;-83
2021/07/22 11:30:35;;;;;;;0.25;0.25;;;;;;;;;;5050538;28;20475;-82
2021/07/22 11:33:17;;;;;;;0.10;0.10;;;;;;;;;;5050253;28;20112;-83
2021/07/22 11:35:59;;;;;;;0.22;0.22;;;;;;;;;;5050602;28;20032;-83
2021/07/22 11:38:26;;;;;;;0.20;0.20;;;;;;;;;;5050115;28;20044;-83
2021/07/22 11:40:52;;;;;;;;;;;;;;;;;;5050722;28;20116;-82
2021/07/22 11:43:36;;;;;;;0.10;0.10;;;;;;;;;;5050307;28;20003;-83
2021/07/22 11:46:03;;;;;;;0.10;0.10;;;;;;;;;;5050205;28;20029;-83
2021/07/22 11:48:29;;;;;;;0.10;0.10;;;;;;;;;;5049658;28;20045;-83
2021/07/22 11:50:59;;;;;;;0.25;0.25;;;;;;;;;;5050130;28;20029;-84
2021/07/22 11:53:25;;;;;;;0.22;0.22;;;;;;;;;;5050264;28;20082;-84
2021/07/22 11:55:51;;;;;;;0.20;0.20;;;;;;;;;;5050261;28;20026;-83
2021/07/22 11:58:21;;;;;;;0.28;0.28;;;;;;;;;;5048376;28;20094;-83
2021/07/22 12:00:46;;;;;;;0.30;0.30;;;;;;;;;;5050177;28;20535;-82
2021/07/22 12:03:12;;;;;;;0.28;0.28;;;;;;;;;;5049897;28;20119;-83
2021/07/22 12:05:38;;;;;;;0.10;0.10;;;;;;;;;;5049996;28;20476;-82
2021/07/22 12:08:18;;;;;;;0.10;0.10;;;;;;;;;;5049474;28;20063;-83
2021/07/22 12:10:45;;;;;;;0.10;0.10;;;;;;;;;;5049870;28;20494;-82
2021/07/22 12:13:12;;;;;;;0.30;0.30;;;;;;;;;;5050081;28;20379;-82
2021/07/22 12:15:38;;;;;;;;;;;;;;;;;;5050514;28;20017;-82
2021/07/22 12:18:04;;;;;;;0.20;0.20;;;;;;;;;;5048987;28;20279;-83
2021/07/22 12:20:31;;;;;;;0.30;0.30;;;;;;;;;;5050082;28;20422;-82
2021/07/22 12:22:56;;;;;;;0.40;0.40;;;;;;;;;;5049781;28;20463;-82
2021/07/22 12:25:28;;;;;;;0.40;0.40;;;;;;;;;;5049734;28;20029;-82
2021/07/22 12:27:54;;;;;;;0.40;0.40;;;;;;;;;;5049603;28;20442;-82
2021/07/22 12:30:21;;;;;;;0.45;0.45;;;;;;;;;;5049598;28;20025;-82
2021/07/22 12:32:54;;;;;;;0.47;0.47;;;;;;;;;;5048161;28;20057;-82
2021/07/22 12:35:38;;;;;;;0.40;0.40;;;;;;;;;;5049609;28;20017;-81
2021/07/22 12:38:10;;;;;;;0.50;0.50;;;;;;;;;;5049741;28;20047;-82
2021/07/22 12:40:38;;;;;;;0.60;0.60;;;;;;;;;;5050063;28;20087;-83
2021/07/22 12:43:05;;;;;;;0.60;0.60;;;;;;;;;;5049975;28;20029;-81
2021/07/22 12:45:31;;;;;;;0.68;0.68;;;;;;;;;;5049404;28;20037;-82
2021/07/22 12:47:57;;;;;;;0.52;0.52;;;;;;;;;;5049422;28;20045;-83
2021/07/22 12:50:29;;;;;;;0.60;0.60;;;;;;;;;;5049463;28;20095;-82
2021/07/22 12:52:59;;;;;;;0.70;0.70;;;;;;;;;;5049725;28;20117;-83
2021/07/22 12:55:29;;;;;;;0.60;0.60;;;;;;;;;;5049580;28;20020;-82
2021/07/22 12:57:55;;;;;;;0.80;0.80;;;;;;;;;;5048996;28;20033;-82
2021/07/22 13:00:21;;;;;;;0.70;0.70;;;;;;;;;;5049649;28;20033;-83
2021/07/22 13:02:58;;;;;;;0.80;0.80;;;;;;;;;;5050281;28;20255;-82
2021/07/22 13:05:24;;;;;;;0.80;0.80;;;;;;;;;;5053096;28;20056;-83
2021/07/22 13:07:51;;;;;;;0.80;0.80;;;;;;;;;;5052856;28;20750;-82
2021/07/22 13:10:19;;;;;;;0.82;0.82;;;;;;;;;;5052582;28;20378;-82
2021/07/22 13:12:45;;;;;;;0.90;0.90;;;;;;;;;;5052861;28;20044;-82
2021/07/22 13:15:11;;;;;;;0.90;0.90;;;;;;;;;;5052981;28;20460;-83
2021/07/22 13:17:40;;;;;;;0.90;0.90;;;;;;;;;;5052987;28;20048;-82
2021/07/22 13:20:06;;;;;;;0.80;0.80;;;;;;;;;;5053378;28;20099;-82
2021/07/22 13:22:32;;;;;;;0.90;0.90;;;;;;;;;;5059026;28;20107;-83
2021/07/22 13:24:58;;;;;;;0.98;0.98;;;;;;;;;;5052491;28;20120;-83
2021/07/22 13:27:24;;;;;;;0.90;0.90;;;;;;;;;;5052878;28;20445;-83
2021/07/22 13:29:50;;;;;;;1.00;1.00;;;;;;;;;;5052442;28;20041;-83
2021/07/22 13:32:16;;;;;;;0.98;0.98;;;;;;;;;;5052708;28;20049;-82
2021/07/22 13:34:45;;;;;;;0.30;0.30;;;;;;;;;;5052080;28;20017;-83
2021/07/22 13:37:11;;;;;;;0.90;0.90;;;;;;;;;;5052398;28;20047;-82
2021/07/22 13:39:37;;;;;;;0.93;0.93;;;;;;;;;;5052167;28;20098;-83
2021/07/22 13:42:07;;;;;;;0.20;0.20;;;;;;;;;;5052540;28;20021;-82
2021/07/22 13:44:33;;;;;;;0.90;0.90;;;;;;;;;;5050888;28;20092;-82
2021/07/22 13:46:59;;;;;;;0.90;0.90;;;;;;;;;;5052508;28;20212;-82
2021/07/22 13:49:26;;;;;;;0.93;0.93;;;;;;;;;;5052122;28;20253;-83
2021/07/22 13:51:52;;;;;;;0.90;0.90;;;;;;;;;;5052231;28;20021;-83
2021/07/22 13:54:18;;;;;;;1.00;1.00;;;;;;;;;;5052395;28;20075;-80
2021/07/22 13:56:44;;;;;;;1.00;1.00;;;;;;;;;;5051881;28;20378;-81
2021/07/22 13:59:10;;;;;;;1.10;1.10;;;;;;;;;;5051828;28;20048;-80
2021/07/22 14:01:37;;;;;;;1.10;1.10;;;;;;;;;;5052171;28;20021;-82
2021/07/22 14:04:03;;;;;;;0.30;0.30;;;;;;;;;;5050447;28;20072;-81
2021/07/22 14:06:29;;;;;;;1.10;1.10;;;;;;;;;;5051602;28;20057;-81
2021/07/22 14:08:55;;;;;;;1.10;1.10;;;;;;;;;;5051524;28;20444;-82
2021/07/22 14:11:21;;;;;;;1.10;1.10;;;;;;;;;;5051677;28;20029;-81
2021/07/22 14:13:48;;;;;;;1.10;1.10;;;;;;;;;;5051692;28;20103;-81
2021/07/22 14:16:14;;;;;;;1.10;1.10;;;;;;;;;;5051390;28;20025;-82
2021/07/22 14:18:40;;;;;;;0.60;0.60;;;;;;;;;;5051586;28;20052;-80
2021/07/22 14:21:06;;;;;;;1.08;1.08;;;;;;;;;;5051572;28;20041;-81
2021/07/22 14:23:33;;;;;;;1.10;1.10;;;;;;;;;;5051733;28;20383;-81
2021/07/22 14:25:59;;;;;;;1.10;1.10;;;;;;;;;;5051587;28;20498;-81
2021/07/22 14:28:25;;;;;;;1.17;1.17;;;;;;;;;;5051190;28;20021;-82
2021/07/22 14:30:51;;;;;;;1.10;1.10;;;;;;;;;;5051227;28;20067;-84
2021/07/22 14:33:17;;;;;;;1.10;1.10;;;;;;;;;;5051551;28;20105;-83
2021/07/22 14:35:43;;;;;;;1.10;1.10;;;;;;;;;;5051081;28;20493;-84
2021/07/22 14:38:09;;;;;;;1.10;1.10;;;;;;;;;;5051332;28;20100;-84
2021/07/22 14:40:35;;;;;;;1.10;1.10;;;;;;;;;;5051928;28;20036;-82
2021/07/22 14:43:02;;;;;;;1.10;1.10;;;;;;;;;;5051415;28;20033;-81
2021/07/22 14:45:28;;;;;;;1.10;1.10;;;;;;;;;;5051488;28;20452;-80